sensor_id;sensor_type;location;lat;lon;timestamp;P1;durP1;ratioP1;P2;durP2;ratioP2
20104;SDS011;10212;42.714;23.310;2022-10-14T00:01:22;9.60;;;4.40;;
20104;SDS011;10212;42.714;23.310;2022-10-14T00:06:28;10.38;;;3.88;;
20104;SDS011;10212;42.714;23.310;2022-10-14T00:11:30;7.35;;;3.58;;
20104;SDS011;10212;42.714;23.310;2022-10-14T00:16:36;8.10;;;3.35;;
20104;SDS011;10212;42.714;23.310;2022-10-14T00:21:40;6.68;;;3.60;;
20104;SDS011;10212;42.714;23.310;2022-10-14T00:26:42;4.57;;;3.20;;
20104;SDS011;10212;42.714;23.310;2022-10-14T00:31:43;5.32;;;3.00;;
20104;SDS011;10212;42.714;23.310;2022-10-14T00:36:45;7.85;;;3.08;;
20104;SDS011;10212;42.714;23.310;2022-10-14T00:41:45;5.35;;;2.80;;
20104;SDS011;10212;42.714;23.310;2022-10-14T00:46:47;5.82;;;2.42;;
20104;SDS011;10212;42.714;23.310;2022-10-14T00:51:50;3.78;;;2.55;;
20104;SDS011;10212;42.714;23.310;2022-10-14T00:56:53;7.55;;;2.25;;
20104;SDS011;10212;42.714;23.310;2022-10-14T01:01:53;4.03;;;2.10;;
20104;SDS011;10212;42.714;23.310;2022-10-14T01:17:15;8.35;;;2.33;;
20104;SDS011;10212;42.714;23.310;2022-10-14T01:22:30;4.28;;;1.95;;
20104;SDS011;10212;42.714;23.310;2022-10-14T01:33:18;4.03;;;1.75;;
20104;SDS011;10212;42.714;23.310;2022-10-14T01:38:24;3.00;;;1.67;;
20104;SDS011;10212;42.714;23.310;2022-10-14T01:43:29;4.47;;;1.90;;
20104;SDS011;10212;42.714;23.310;2022-10-14T01:48:33;5.60;;;1.65;;
20104;SDS011;10212;42.714;23.310;2022-10-14T01:53:41;3.28;;;2.00;;
20104;SDS011;10212;42.714;23.310;2022-10-14T01:58:48;3.08;;;1.73;;
20104;SDS011;10212;42.714;23.310;2022-10-14T02:03:51;3.70;;;1.70;;
20104;SDS011;10212;42.714;23.310;2022-10-14T02:08:56;4.90;;;1.42;;
20104;SDS011;10212;42.714;23.310;2022-10-14T02:19:51;2.70;;;1.48;;
20104;SDS011;10212;42.714;23.310;2022-10-14T02:24:59;2.35;;;1.30;;
20104;SDS011;10212;42.714;23.310;2022-10-14T02:30:07;2.70;;;1.23;;
20104;SDS011;10212;42.714;23.310;2022-10-14T02:35:08;4.05;;;1.60;;
20104;SDS011;10212;42.714;23.310;2022-10-14T02:40:13;4.18;;;1.38;;
20104;SDS011;10212;42.714;23.310;2022-10-14T02:45:16;5.60;;;1.48;;
20104;SDS011;10212;42.714;23.310;2022-10-14T02:50:18;7.57;;;1.80;;
20104;SDS011;10212;42.714;23.310;2022-10-14T02:55:19;1.85;;;1.20;;
20104;SDS011;10212;42.714;23.310;2022-10-14T03:00:21;2.38;;;1.20;;
20104;SDS011;10212;42.714;23.310;2022-10-14T03:05:21;3.15;;;1.55;;
20104;SDS011;10212;42.714;23.310;2022-10-14T03:10:22;3.38;;;1.30;;
20104;SDS011;10212;42.714;23.310;2022-10-14T03:15:22;4.88;;;1.50;;
20104;SDS011;10212;42.714;23.310;2022-10-14T03:20:23;2.40;;;1.40;;
20104;SDS011;10212;42.714;23.310;2022-10-14T03:25:23;3.40;;;1.45;;
20104;SDS011;10212;42.714;23.310;2022-10-14T03:30:24;2.55;;;1.40;;
20104;SDS011;10212;42.714;23.310;2022-10-14T03:35:24;5.82;;;1.90;;
20104;SDS011;10212;42.714;23.310;2022-10-14T03:40:25;3.28;;;1.60;;
20104;SDS011;10212;42.714;23.310;2022-10-14T03:45:26;4.03;;;1.60;;
20104;SDS011;10212;42.714;23.310;2022-10-14T03:50:27;5.13;;;1.50;;
20104;SDS011;10212;42.714;23.310;2022-10-14T03:55:28;2.40;;;1.50;;
20104;SDS011;10212;42.714;23.310;2022-10-14T04:00:29;4.55;;;1.65;;
20104;SDS011;10212;42.714;23.310;2022-10-14T04:05:29;3.90;;;1.65;;
20104;SDS011;10212;42.714;23.310;2022-10-14T04:10:33;5.82;;;1.65;;
20104;SDS011;10212;42.714;23.310;2022-10-14T04:15:34;3.95;;;1.48;;
20104;SDS011;10212;42.714;23.310;2022-10-14T04:20:36;4.82;;;2.20;;
20104;SDS011;10212;42.714;23.310;2022-10-14T04:25:37;2.58;;;1.77;;
20104;SDS011;10212;42.714;23.310;2022-10-14T04:30:38;3.05;;;1.83;;
20104;SDS011;10212;42.714;23.310;2022-10-14T04:35:39;5.80;;;1.95;;
20104;SDS011;10212;42.714;23.310;2022-10-14T04:40:39;3.60;;;1.90;;
20104;SDS011;10212;42.714;23.310;2022-10-14T04:45:43;4.73;;;1.97;;
20104;SDS011;10212;42.714;23.310;2022-10-14T04:50:44;5.33;;;1.97;;
20104;SDS011;10212;42.714;23.310;2022-10-14T04:55:45;6.47;;;3.00;;
20104;SDS011;10212;42.714;23.310;2022-10-14T05:00:45;5.95;;;2.60;;
20104;SDS011;10212;42.714;23.310;2022-10-14T05:05:46;5.55;;;2.70;;
20104;SDS011;10212;42.714;23.310;2022-10-14T05:10:47;7.07;;;2.60;;
20104;SDS011;10212;42.714;23.310;2022-10-14T05:15:48;4.78;;;2.88;;
20104;SDS011;10212;42.714;23.310;2022-10-14T05:20:48;9.43;;;2.70;;
20104;SDS011;10212;42.714;23.310;2022-10-14T05:25:49;8.48;;;2.85;;
20104;SDS011;10212;42.714;23.310;2022-10-14T05:30:50;6.82;;;2.50;;
20104;SDS011;10212;42.714;23.310;2022-10-14T05:35:51;5.85;;;3.03;;
20104;SDS011;10212;42.714;23.310;2022-10-14T05:40:55;6.72;;;3.00;;
20104;SDS011;10212;42.714;23.310;2022-10-14T05:45:56;4.57;;;3.13;;
20104;SDS011;10212;42.714;23.310;2022-10-14T05:50:57;8.95;;;3.10;;
20104;SDS011;10212;42.714;23.310;2022-10-14T05:56:02;4.43;;;2.53;;
20104;SDS011;10212;42.714;23.310;2022-10-14T06:01:05;7.18;;;2.80;;
20104;SDS011;10212;42.714;23.310;2022-10-14T06:06:11;4.22;;;2.85;;
20104;SDS011;10212;42.714;23.310;2022-10-14T06:11:15;3.42;;;2.50;;
20104;SDS011;10212;42.714;23.310;2022-10-14T06:16:16;8.00;;;2.80;;
20104;SDS011;10212;42.714;23.310;2022-10-14T06:21:16;3.92;;;2.40;;
20104;SDS011;10212;42.714;23.310;2022-10-14T06:26:17;5.75;;;2.53;;
20104;SDS011;10212;42.714;23.310;2022-10-14T06:31:17;4.30;;;2.30;;
20104;SDS011;10212;42.714;23.310;2022-10-14T06:36:18;5.05;;;2.10;;
20104;SDS011;10212;42.714;23.310;2022-10-14T06:41:18;6.05;;;2.28;;
20104;SDS011;10212;42.714;23.310;2022-10-14T06:46:19;3.53;;;2.60;;
20104;SDS011;10212;42.714;23.310;2022-10-14T06:51:19;7.55;;;2.63;;
20104;SDS011;10212;42.714;23.310;2022-10-14T06:56:20;3.72;;;2.97;;
20104;SDS011;10212;42.714;23.310;2022-10-14T07:01:21;7.07;;;3.08;;
20104;SDS011;10212;42.714;23.310;2022-10-14T07:06:22;6.13;;;3.45;;
20104;SDS011;10212;42.714;23.310;2022-10-14T07:11:23;8.10;;;3.90;;
20104;SDS011;10212;42.714;23.310;2022-10-14T07:16:23;6.28;;;3.60;;
20104;SDS011;10212;42.714;23.310;2022-10-14T07:21:24;6.10;;;3.78;;
20104;SDS011;10212;42.714;23.310;2022-10-14T07:26:25;4.30;;;3.70;;
20104;SDS011;10212;42.714;23.310;2022-10-14T07:31:25;4.00;;;3.60;;
20104;SDS011;10212;42.714;23.310;2022-10-14T07:36:26;5.15;;;4.07;;
20104;SDS011;10212;42.714;23.310;2022-10-14T07:41:26;10.02;;;3.88;;
20104;SDS011;10212;42.714;23.310;2022-10-14T07:46:28;5.97;;;4.38;;
20104;SDS011;10212;42.714;23.310;2022-10-14T07:51:31;9.43;;;4.20;;
20104;SDS011;10212;42.714;23.310;2022-10-14T07:56:32;4.53;;;4.10;;
20104;SDS011;10212;42.714;23.310;2022-10-14T08:01:35;4.63;;;3.85;;
20104;SDS011;10212;42.714;23.310;2022-10-14T08:06:36;5.82;;;4.50;;
20104;SDS011;10212;42.714;23.310;2022-10-14T08:11:37;5.30;;;4.25;;
20104;SDS011;10212;42.714;23.310;2022-10-14T08:16:38;9.00;;;4.20;;
20104;SDS011;10212;42.714;23.310;2022-10-14T08:21:39;4.45;;;3.22;;
20104;SDS011;10212;42.714;23.310;2022-10-14T08:26:48;6.85;;;2.80;;
20104;SDS011;10212;42.714;23.310;2022-10-14T08:31:50;3.47;;;2.95;;
20104;SDS011;10212;42.714;23.310;2022-10-14T08:36:53;5.88;;;2.90;;
20104;SDS011;10212;42.714;23.310;2022-10-14T08:47:32;7.60;;;2.50;;
20104;SDS011;10212;42.714;23.310;2022-10-14T08:52:39;3.85;;;3.03;;
20104;SDS011;10212;42.714;23.310;2022-10-14T08:57:48;5.28;;;2.38;;
20104;SDS011;10212;42.714;23.310;2022-10-14T09:02:53;2.55;;;2.25;;
20104;SDS011;10212;42.714;23.310;2022-10-14T09:07:54;3.67;;;2.65;;
20104;SDS011;10212;42.714;23.310;2022-10-14T09:18:43;3.97;;;2.22;;
20104;SDS011;10212;42.714;23.310;2022-10-14T09:23:48;3.38;;;2.55;;
20104;SDS011;10212;42.714;23.310;2022-10-14T09:28:56;4.85;;;3.08;;
20104;SDS011;10212;42.714;23.310;2022-10-14T09:33:57;5.63;;;3.50;;
20104;SDS011;10212;42.714;23.310;2022-10-14T09:38:57;4.68;;;3.25;;
20104;SDS011;10212;42.714;23.310;2022-10-14T09:44:14;5.88;;;3.75;;
20104;SDS011;10212;42.714;23.310;2022-10-14T09:49:24;4.88;;;3.88;;
20104;SDS011;10212;42.714;23.310;2022-10-14T09:54:27;5.03;;;4.20;;
20104;SDS011;10212;42.714;23.310;2022-10-14T09:59:29;7.22;;;4.43;;
20104;SDS011;10212;42.714;23.310;2022-10-14T10:09:39;5.53;;;4.45;;
20104;SDS011;10212;42.714;23.310;2022-10-14T10:14:40;11.45;;;7.15;;
20104;SDS011;10212;42.714;23.310;2022-10-14T10:19:41;7.33;;;5.03;;
20104;SDS011;10212;42.714;23.310;2022-10-14T10:24:43;7.70;;;4.97;;
20104;SDS011;10212;42.714;23.310;2022-10-14T10:29:44;6.70;;;4.20;;
20104;SDS011;10212;42.714;23.310;2022-10-14T10:35:00;6.03;;;4.07;;
20104;SDS011;10212;42.714;23.310;2022-10-14T10:40:22;5.35;;;3.65;;
20104;SDS011;10212;42.714;23.310;2022-10-14T10:45:45;5.82;;;3.67;;
20104;SDS011;10212;42.714;23.310;2022-10-14T10:50:56;5.65;;;3.38;;
20104;SDS011;10212;42.714;23.310;2022-10-14T11:07:43;4.22;;;2.40;;
20104;SDS011;10212;42.714;23.310;2022-10-14T11:12:37;3.70;;;2.00;;
20104;SDS011;10212;42.714;23.310;2022-10-14T11:28:54;2.70;;;1.63;;
20104;SDS011;10212;42.714;23.310;2022-10-14T11:39:49;1.30;;;1.20;;
20104;SDS011;10212;42.714;23.310;2022-10-14T11:45:19;1.13;;;0.98;;
20104;SDS011;10212;42.714;23.310;2022-10-14T11:50:46;1.95;;;1.20;;
20104;SDS011;10212;42.714;23.310;2022-10-14T11:55:53;1.37;;;1.13;;
20104;SDS011;10212;42.714;23.310;2022-10-14T12:01:09;3.72;;;1.00;;
20104;SDS011;10212;42.714;23.310;2022-10-14T12:11:40;2.10;;;1.10;;
20104;SDS011;10212;42.714;23.310;2022-10-14T12:16:46;2.15;;;0.80;;
20104;SDS011;10212;42.714;23.310;2022-10-14T12:27:12;1.95;;;0.90;;
20104;SDS011;10212;42.714;23.310;2022-10-14T12:42:23;4.40;;;1.60;;
20104;SDS011;10212;42.714;23.310;2022-10-14T12:52:36;2.08;;;1.13;;
20104;SDS011;10212;42.714;23.310;2022-10-14T12:57:38;2.28;;;1.13;;
20104;SDS011;10212;42.714;23.310;2022-10-14T13:02:43;1.60;;;0.90;;
20104;SDS011;10212;42.714;23.310;2022-10-14T13:07:45;3.70;;;1.52;;
20104;SDS011;10212;42.714;23.310;2022-10-14T13:12:47;3.55;;;1.65;;
20104;SDS011;10212;42.714;23.310;2022-10-14T13:17:48;4.95;;;1.20;;
20104;SDS011;10212;42.714;23.310;2022-10-14T13:22:48;4.03;;;1.00;;
20104;SDS011;10212;42.714;23.310;2022-10-14T13:28:01;3.85;;;1.15;;
20104;SDS011;10212;42.714;23.310;2022-10-14T13:38:16;6.60;;;1.10;;
20104;SDS011;10212;42.714;23.310;2022-10-14T13:43:28;3.67;;;1.10;;
20104;SDS011;10212;42.714;23.310;2022-10-14T13:48:38;4.72;;;1.25;;
20104;SDS011;10212;42.714;23.310;2022-10-14T13:53:52;2.67;;;1.30;;
20104;SDS011;10212;42.714;23.310;2022-10-14T13:58:54;2.72;;;1.38;;
20104;SDS011;10212;42.714;23.310;2022-10-14T14:03:55;1.77;;;0.98;;
20104;SDS011;10212;42.714;23.310;2022-10-14T14:08:58;1.20;;;1.10;;
20104;SDS011;10212;42.714;23.310;2022-10-14T14:14:01;4.63;;;0.98;;
20104;SDS011;10212;42.714;23.310;2022-10-14T14:19:18;1.85;;;0.93;;
20104;SDS011;10212;42.714;23.310;2022-10-14T14:24:23;3.35;;;0.80;;
20104;SDS011;10212;42.714;23.310;2022-10-14T14:29:28;1.73;;;0.80;;
20104;SDS011;10212;42.714;23.310;2022-10-14T14:34:31;1.33;;;0.70;;
20104;SDS011;10212;42.714;23.310;2022-10-14T14:39:34;8.18;;;3.42;;
20104;SDS011;10212;42.714;23.310;2022-10-14T14:44:35;2.78;;;1.10;;
20104;SDS011;10212;42.714;23.310;2022-10-14T14:49:38;1.67;;;0.90;;
20104;SDS011;10212;42.714;23.310;2022-10-14T14:54:43;5.07;;;1.75;;
20104;SDS011;10212;42.714;23.310;2022-10-14T15:00:02;7.22;;;4.30;;
20104;SDS011;10212;42.714;23.310;2022-10-14T15:10:18;2.63;;;1.65;;
20104;SDS011;10212;42.714;23.310;2022-10-14T15:15:32;3.83;;;2.20;;
20104;SDS011;10212;42.714;23.310;2022-10-14T15:20:34;4.25;;;1.70;;
20104;SDS011;10212;42.714;23.310;2022-10-14T15:25:36;4.78;;;2.10;;
20104;SDS011;10212;42.714;23.310;2022-10-14T15:35:40;5.10;;;1.47;;
20104;SDS011;10212;42.714;23.310;2022-10-14T15:40:42;5.97;;;2.00;;
